sensor_id;sensor_type;location;lat;lon;timestamp;temperature;humidity
10692;DHT22;5396;50.950;6.988;2022-08-04T00:01:07;24.60;99.90
10692;DHT22;5396;50.950;6.988;2022-08-04T00:04:10;24.60;99.90
10692;DHT22;5396;50.950;6.988;2022-08-04T00:06:50;24.60;99.90
10692;DHT22;5396;50.950;6.988;2022-08-04T00:09:43;24.60;99.90
10692;DHT22;5396;50.950;6.988;2022-08-04T00:12:11;24.60;99.90
10692;DHT22;5396;50.950;6.988;2022-08-04T00:14:49;24.60;99.90
10692;DHT22;5396;50.950;6.988;2022-08-04T00:17:19;24.50;99.90
10692;DHT22;5396;50.950;6.988;2022-08-04T00:19:48;24.40;99.90
10692;DHT22;5396;50.950;6.988;2022-08-04T00:22:17;24.30;99.90
10692;DHT22;5396;50.950;6.988;2022-08-04T00:24:45;24.10;99.90
10692;DHT22;5396;50.950;6.988;2022-08-04T00:27:11;24.00;99.90
10692;DHT22;5396;50.950;6.988;2022-08-04T00:29:38;24.00;99.90
10692;DHT22;5396;50.950;6.988;2022-08-04T00:32:06;23.90;99.90
10692;DHT22;5396;50.950;6.988;2022-08-04T00:34:33;23.90;99.90
10692;DHT22;5396;50.950;6.988;2022-08-04T00:36:58;23.80;99.90
10692;DHT22;5396;50.950;6.988;2022-08-04T00:39:25;23.80;99.90
10692;DHT22;5396;50.950;6.988;2022-08-04T00:44:52;23.80;99.90
10692;DHT22;5396;50.950;6.988;2022-08-04T00:58:58;23.50;99.90
10692;DHT22;5396;50.950;6.988;2022-08-04T01:24:24;22.80;99.90
10692;DHT22;5396;50.950;6.988;2022-08-04T01:29:58;22.70;99.90
10692;DHT22;5396;50.950;6.988;2022-08-04T01:32:31;22.70;99.90
10692;DHT22;5396;50.950;6.988;2022-08-04T01:35:04;22.70;99.90
10692;DHT22;5396;50.950;6.988;2022-08-04T01:40:20;22.60;99.90
10692;DHT22;5396;50.950;6.988;2022-08-04T01:42:48;22.60;99.90
10692;DHT22;5396;50.950;6.988;2022-08-04T01:45:17;22.60;99.90
10692;DHT22;5396;50.950;6.988;2022-08-04T01:47:49;22.70;99.90
10692;DHT22;5396;50.950;6.988;2022-08-04T01:50:14;22.70;99.90
10692;DHT22;5396;50.950;6.988;2022-08-04T01:52:41;22.70;99.90
10692;DHT22;5396;50.950;6.988;2022-08-04T01:55:10;22.70;99.90
10692;DHT22;5396;50.950;6.988;2022-08-04T01:57:45;22.70;99.90
10692;DHT22;5396;50.950;6.988;2022-08-04T02:00:13;22.70;99.90
10692;DHT22;5396;50.950;6.988;2022-08-04T02:02:39;22.70;99.90
10692;DHT22;5396;50.950;6.988;2022-08-04T02:05:09;22.70;99.90
10692;DHT22;5396;50.950;6.988;2022-08-04T02:16:15;22.60;99.90
10692;DHT22;5396;50.950;6.988;2022-08-04T02:19:29;22.50;99.90
10692;DHT22;5396;50.950;6.988;2022-08-04T02:21:33;22.50;99.90
10692;DHT22;5396;50.950;6.988;2022-08-04T02:24:07;22.50;99.90
10692;DHT22;5396;50.950;6.988;2022-08-04T02:26:34;22.60;99.90
10692;DHT22;5396;50.950;6.988;2022-08-04T02:29:15;22.60;99.90
10692;DHT22;5396;50.950;6.988;2022-08-04T02:31:59;22.60;99.90
10692;DHT22;5396;50.950;6.988;2022-08-04T02:34:32;22.60;99.90
10692;DHT22;5396;50.950;6.988;2022-08-04T02:37:02;22.50;99.90
10692;DHT22;5396;50.950;6.988;2022-08-04T02:39:33;22.40;99.90
10692;DHT22;5396;50.950;6.988;2022-08-04T02:42:02;22.40;99.90
10692;DHT22;5396;50.950;6.988;2022-08-04T02:44:28;22.40;99.90
10692;DHT22;5396;50.950;6.988;2022-08-04T02:46:54;22.30;99.90
10692;DHT22;5396;50.950;6.988;2022-08-04T02:49:22;22.30;99.90
10692;DHT22;5396;50.950;6.988;2022-08-04T02:51:52;22.20;99.90
10692;DHT22;5396;50.950;6.988;2022-08-04T02:54:22;22.20;99.90
10692;DHT22;5396;50.950;6.988;2022-08-04T02:56:51;22.10;99.90
10692;DHT22;5396;50.950;6.988;2022-08-04T02:59:18;22.10;99.90
10692;DHT22;5396;50.950;6.988;2022-08-04T03:01:44;22.10;99.90
10692;DHT22;5396;50.950;6.988;2022-08-04T03:35:41;22.00;99.90
10692;DHT22;5396;50.950;6.988;2022-08-04T03:52:08;22.00;99.90
10692;DHT22;5396;50.950;6.988;2022-08-04T03:58:14;22.00;99.90
10692;DHT22;5396;50.950;6.988;2022-08-04T04:06:32;21.90;99.90
10692;DHT22;5396;50.950;6.988;2022-08-04T04:14:45;21.90;99.90
10692;DHT22;5396;50.950;6.988;2022-08-04T04:25:04;21.80;99.90
10692;DHT22;5396;50.950;6.988;2022-08-04T04:31:38;21.80;99.90
10692;DHT22;5396;50.950;6.988;2022-08-04T04:51:21;21.90;99.90
10692;DHT22;5396;50.950;6.988;2022-08-04T04:53:58;21.90;99.90
10692;DHT22;5396;50.950;6.988;2022-08-04T04:56:44;21.90;99.90
10692;DHT22;5396;50.950;6.988;2022-08-04T04:59:14;21.90;99.90
10692;DHT22;5396;50.950;6.988;2022-08-04T05:10:53;22.00;99.90
10692;DHT22;5396;50.950;6.988;2022-08-04T05:16:19;22.10;99.90
10692;DHT22;5396;50.950;6.988;2022-08-04T05:18:52;22.10;99.90
10692;DHT22;5396;50.950;6.988;2022-08-04T05:24:08;22.20;99.90
10692;DHT22;5396;50.950;6.988;2022-08-04T05:26:40;22.20;99.90
10692;DHT22;5396;50.950;6.988;2022-08-04T05:29:39;22.30;99.90
10692;DHT22;5396;50.950;6.988;2022-08-04T05:32:06;22.30;99.90
10692;DHT22;5396;50.950;6.988;2022-08-04T05:34:39;22.30;99.90
10692;DHT22;5396;50.950;6.988;2022-08-04T05:37:14;22.40;99.90
10692;DHT22;5396;50.950;6.988;2022-08-04T05:39:51;22.40;99.90
10692;DHT22;5396;50.950;6.988;2022-08-04T05:42:18;22.50;99.90
10692;DHT22;5396;50.950;6.988;2022-08-04T05:44:45;22.50;99.90
10692;DHT22;5396;50.950;6.988;2022-08-04T05:47:11;22.60;99.90
10692;DHT22;5396;50.950;6.988;2022-08-04T05:49:38;22.60;99.90
10692;DHT22;5396;50.950;6.988;2022-08-04T05:52:07;22.70;99.90
10692;DHT22;5396;50.950;6.988;2022-08-04T05:54:35;22.70;99.90
10692;DHT22;5396;50.950;6.988;2022-08-04T05:57:06;22.70;99.90
10692;DHT22;5396;50.950;6.988;2022-08-04T05:59:36;22.70;99.90
10692;DHT22;5396;50.950;6.988;2022-08-04T06:02:03;22.80;99.90
10692;DHT22;5396;50.950;6.988;2022-08-04T06:04:40;22.90;99.90
10692;DHT22;5396;50.950;6.988;2022-08-04T06:07:07;22.90;99.90
10692;DHT22;5396;50.950;6.988;2022-08-04T06:09:33;23.00;99.90
10692;DHT22;5396;50.950;6.988;2022-08-04T06:12:01;23.10;99.90
10692;DHT22;5396;50.950;6.988;2022-08-04T06:14:32;23.20;99.90
10692;DHT22;5396;50.950;6.988;2022-08-04T06:17:01;23.30;99.90
10692;DHT22;5396;50.950;6.988;2022-08-04T06:19:30;23.50;99.90
10692;DHT22;5396;50.950;6.988;2022-08-04T06:21:59;23.60;99.90
10692;DHT22;5396;50.950;6.988;2022-08-04T06:24:28;23.70;99.90
10692;DHT22;5396;50.950;6.988;2022-08-04T06:26:54;23.80;99.90
10692;DHT22;5396;50.950;6.988;2022-08-04T06:29:22;23.90;99.90
10692;DHT22;5396;50.950;6.988;2022-08-04T06:31:56;24.00;99.90
10692;DHT22;5396;50.950;6.988;2022-08-04T06:34:25;24.00;99.90
10692;DHT22;5396;50.950;6.988;2022-08-04T06:36:52;24.10;99.90
10692;DHT22;5396;50.950;6.988;2022-08-04T06:39:20;24.10;99.90
10692;DHT22;5396;50.950;6.988;2022-08-04T06:41:49;24.10;99.90
10692;DHT22;5396;50.950;6.988;2022-08-04T06:44:16;24.20;99.90
10692;DHT22;5396;50.950;6.988;2022-08-04T06:46:44;24.20;99.90
10692;DHT22;5396;50.950;6.988;2022-08-04T06:49:10;24.30;99.90
10692;DHT22;5396;50.950;6.988;2022-08-04T06:51:37;24.40;99.90
10692;DHT22;5396;50.950;6.988;2022-08-04T06:54:04;24.50;99.90
10692;DHT22;5396;50.950;6.988;2022-08-04T06:56:31;24.60;99.90
10692;DHT22;5396;50.950;6.988;2022-08-04T06:58:58;24.60;99.90
10692;DHT22;5396;50.950;6.988;2022-08-04T07:01:26;24.70;99.90
10692;DHT22;5396;50.950;6.988;2022-08-04T07:03:53;24.80;99.90
10692;DHT22;5396;50.950;6.988;2022-08-04T07:06:21;24.90;99.90
10692;DHT22;5396;50.950;6.988;2022-08-04T07:08:48;25.00;99.90
10692;DHT22;5396;50.950;6.988;2022-08-04T07:11:14;25.00;99.90
10692;DHT22;5396;50.950;6.988;2022-08-04T07:13:39;25.10;99.90
10692;DHT22;5396;50.950;6.988;2022-08-04T07:16:09;25.20;99.90
10692;DHT22;5396;50.950;6.988;2022-08-04T07:18:37;25.30;99.90
10692;DHT22;5396;50.950;6.988;2022-08-04T07:21:03;25.40;99.90
10692;DHT22;5396;50.950;6.988;2022-08-04T07:23:29;25.50;99.90
10692;DHT22;5396;50.950;6.988;2022-08-04T07:25:56;25.60;99.90
10692;DHT22;5396;50.950;6.988;2022-08-04T07:28:29;25.70;99.90
10692;DHT22;5396;50.950;6.988;2022-08-04T07:30:56;25.70;99.90
10692;DHT22;5396;50.950;6.988;2022-08-04T07:33:23;25.80;99.90
10692;DHT22;5396;50.950;6.988;2022-08-04T07:35:51;25.80;99.90
10692;DHT22;5396;50.950;6.988;2022-08-04T07:38:17;25.90;99.90
10692;DHT22;5396;50.950;6.988;2022-08-04T07:40:43;25.90;99.90
10692;DHT22;5396;50.950;6.988;2022-08-04T07:43:10;25.90;99.90
10692;DHT22;5396;50.950;6.988;2022-08-04T07:45:36;26.00;99.90
10692;DHT22;5396;50.950;6.988;2022-08-04T07:48:02;26.10;99.90
10692;DHT22;5396;50.950;6.988;2022-08-04T07:50:32;26.10;99.90
10692;DHT22;5396;50.950;6.988;2022-08-04T07:52:59;26.20;99.90
10692;DHT22;5396;50.950;6.988;2022-08-04T07:55:27;26.30;99.90
10692;DHT22;5396;50.950;6.988;2022-08-04T07:57:53;26.40;99.90
10692;DHT22;5396;50.950;6.988;2022-08-04T08:00:19;26.50;99.90
10692;DHT22;5396;50.950;6.988;2022-08-04T08:02:47;26.60;99.90
10692;DHT22;5396;50.950;6.988;2022-08-04T08:05:14;26.60;99.90
10692;DHT22;5396;50.950;6.988;2022-08-04T08:07:47;26.70;99.90
10692;DHT22;5396;50.950;6.988;2022-08-04T08:10:13;26.80;99.90
10692;DHT22;5396;50.950;6.988;2022-08-04T08:12:41;26.90;99.90
10692;DHT22;5396;50.950;6.988;2022-08-04T08:15:07;27.00;99.90
10692;DHT22;5396;50.950;6.988;2022-08-04T08:17:34;27.10;99.90
10692;DHT22;5396;50.950;6.988;2022-08-04T08:20:00;27.30;99.90
10692;DHT22;5396;50.950;6.988;2022-08-04T08:22:27;27.40;99.90
10692;DHT22;5396;50.950;6.988;2022-08-04T08:24:53;27.50;99.90
10692;DHT22;5396;50.950;6.988;2022-08-04T08:27:19;27.60;99.90
10692;DHT22;5396;50.950;6.988;2022-08-04T08:29:45;27.70;99.90
10692;DHT22;5396;50.950;6.988;2022-08-04T08:32:13;27.80;99.90
10692;DHT22;5396;50.950;6.988;2022-08-04T08:34:40;27.90;99.90
10692;DHT22;5396;50.950;6.988;2022-08-04T08:39:41;28.00;99.90
10692;DHT22;5396;50.950;6.988;2022-08-04T08:42:22;28.10;99.90
10692;DHT22;5396;50.950;6.988;2022-08-04T08:48:10;28.40;99.90
10692;DHT22;5396;50.950;6.988;2022-08-04T09:08:00;29.10;99.90
10692;DHT22;5396;50.950;6.988;2022-08-04T09:10:11;29.30;99.90
10692;DHT22;5396;50.950;6.988;2022-08-04T09:13:03;29.50;99.90
10692;DHT22;5396;50.950;6.988;2022-08-04T09:15:44;29.80;99.90
10692;DHT22;5396;50.950;6.988;2022-08-04T09:18:19;30.00;99.90
10692;DHT22;5396;50.950;6.988;2022-08-04T09:21:09;30.30;99.90
10692;DHT22;5396;50.950;6.988;2022-08-04T09:24:13;30.50;99.90
10692;DHT22;5396;50.950;6.988;2022-08-04T09:26:56;30.70;99.90
10692;DHT22;5396;50.950;6.988;2022-08-04T09:32:02;31.10;99.90
10692;DHT22;5396;50.950;6.988;2022-08-04T09:37:16;31.00;99.90
10692;DHT22;5396;50.950;6.988;2022-08-04T09:40:02;31.10;99.90
10692;DHT22;5396;50.950;6.988;2022-08-04T09:42:49;31.10;99.90
10692;DHT22;5396;50.950;6.988;2022-08-04T09:45:37;31.20;99.90
10692;DHT22;5396;50.950;6.988;2022-08-04T09:48:16;31.30;99.90
10692;DHT22;5396;50.950;6.988;2022-08-04T09:50:45;31.30;99.90
10692;DHT22;5396;50.950;6.988;2022-08-04T09:56:10;31.40;99.90
10692;DHT22;5396;50.950;6.988;2022-08-04T09:58:57;31.70;99.90
10692;DHT22;5396;50.950;6.988;2022-08-04T10:01:28;32.00;99.90
10692;DHT22;5396;50.950;6.988;2022-08-04T10:03:58;32.30;99.90
10692;DHT22;5396;50.950;6.988;2022-08-04T10:18:08;33.30;99.90
10692;DHT22;5396;50.950;6.988;2022-08-04T10:21:02;33.40;99.90
10692;DHT22;5396;50.950;6.988;2022-08-04T10:23:51;33.40;99.90
10692;DHT22;5396;50.950;6.988;2022-08-04T10:26:35;33.50;99.90
10692;DHT22;5396;50.950;6.988;2022-08-04T10:29:25;33.30;99.90
10692;DHT22;5396;50.950;6.988;2022-08-04T10:34:43;33.50;99.90
10692;DHT22;5396;50.950;6.988;2022-08-04T10:37:28;33.60;99.90
10692;DHT22;5396;50.950;6.988;2022-08-04T10:40:05;33.70;99.90
10692;DHT22;5396;50.950;6.988;2022-08-04T10:42:59;33.60;99.90
10692;DHT22;5396;50.950;6.988;2022-08-04T10:45:33;33.70;99.90
10692;DHT22;5396;50.950;6.988;2022-08-04T10:48:32;33.50;99.90
10692;DHT22;5396;50.950;6.988;2022-08-04T10:53:48;33.50;99.90
10692;DHT22;5396;50.950;6.988;2022-08-04T10:56:27;33.60;99.90
10692;DHT22;5396;50.950;6.988;2022-08-04T10:59:00;33.60;99.90
10692;DHT22;5396;50.950;6.988;2022-08-04T11:01:34;33.50;99.90
10692;DHT22;5396;50.950;6.988;2022-08-04T11:04:07;33.40;99.90
10692;DHT22;5396;50.950;6.988;2022-08-04T11:06:35;33.60;99.90
10692;DHT22;5396;50.950;6.988;2022-08-04T11:09:03;33.50;99.90
10692;DHT22;5396;50.950;6.988;2022-08-04T11:11:38;33.60;99.90
10692;DHT22;5396;50.950;6.988;2022-08-04T11:14:21;33.70;99.90
10692;DHT22;5396;50.950;6.988;2022-08-04T11:17:09;34.00;99.90
10692;DHT22;5396;50.950;6.988;2022-08-04T11:20:13;34.20;99.90
10692;DHT22;5396;50.950;6.988;2022-08-04T11:23:05;34.50;99.90
10692;DHT22;5396;50.950;6.988;2022-08-04T11:26:14;34.40;99.90
10692;DHT22;5396;50.950;6.988;2022-08-04T11:31:22;33.80;99.90
10692;DHT22;5396;50.950;6.988;2022-08-04T11:36:29;33.50;99.90
10692;DHT22;5396;50.950;6.988;2022-08-04T11:39:11;33.40;99.90
10692;DHT22;5396;50.950;6.988;2022-08-04T11:41:46;33.20;99.90
10692;DHT22;5396;50.950;6.988;2022-08-04T11:45:03;33.20;99.90
10692;DHT22;5396;50.950;6.988;2022-08-04T11:47:48;33.10;99.90
10692;DHT22;5396;50.950;6.988;2022-08-04T11:50:20;33.20;99.90
10692;DHT22;5396;50.950;6.988;2022-08-04T11:52:49;33.20;99.90
10692;DHT22;5396;50.950;6.988;2022-08-04T11:55:18;33.10;99.90
10692;DHT22;5396;50.950;6.988;2022-08-04T11:57:47;33.10;99.90
10692;DHT22;5396;50.950;6.988;2022-08-04T12:00:14;33.00;99.90
10692;DHT22;5396;50.950;6.988;2022-08-04T12:03:05;32.80;99.90
10692;DHT22;5396;50.950;6.988;2022-08-04T12:17:03;32.50;99.90
10692;DHT22;5396;50.950;6.988;2022-08-04T12:22:22;32.80;99.90
10692;DHT22;5396;50.950;6.988;2022-08-04T12:25:04;32.60;99.90
10692;DHT22;5396;50.950;6.988;2022-08-04T12:27:39;32.40;99.90
10692;DHT22;5396;50.950;6.988;2022-08-04T12:30:07;32.30;99.90
10692;DHT22;5396;50.950;6.988;2022-08-04T12:36:08;32.10;99.90
10692;DHT22;5396;50.950;6.988;2022-08-04T12:38:46;32.00;99.90
10692;DHT22;5396;50.950;6.988;2022-08-04T12:41:15;31.80;99.90
10692;DHT22;5396;50.950;6.988;2022-08-04T12:43:44;31.60;99.90
10692;DHT22;5396;50.950;6.988;2022-08-04T12:48:46;31.70;99.90
10692;DHT22;5396;50.950;6.988;2022-08-04T12:51:12;31.60;99.90
10692;DHT22;5396;50.950;6.988;2022-08-04T12:53:40;31.60;99.90
10692;DHT22;5396;50.950;6.988;2022-08-04T12:56:09;31.60;99.90
10692;DHT22;5396;50.950;6.988;2022-08-04T12:58:46;31.70;99.90
10692;DHT22;5396;50.950;6.988;2022-08-04T13:01:23;31.80;99.90
10692;DHT22;5396;50.950;6.988;2022-08-04T13:03:54;32.00;99.90
10692;DHT22;5396;50.950;6.988;2022-08-04T13:06:27;32.00;99.90
10692;DHT22;5396;50.950;6.988;2022-08-04T13:08:54;31.90;99.90
10692;DHT22;5396;50.950;6.988;2022-08-04T13:11:21;31.80;99.90
10692;DHT22;5396;50.950;6.988;2022-08-04T13:13:53;31.80;99.90
10692;DHT22;5396;50.950;6.988;2022-08-04T13:16:31;31.80;99.90
10692;DHT22;5396;50.950;6.988;2022-08-04T13:18:57;31.90;99.90
10692;DHT22;5396;50.950;6.988;2022-08-04T13:21:26;32.10;99.90
10692;DHT22;5396;50.950;6.988;2022-08-04T13:23:55;32.30;99.90
10692;DHT22;5396;50.950;6.988;2022-08-04T13:26:23;33.60;99.90
10692;DHT22;5396;50.950;6.988;2022-08-04T13:28:52;34.20;99.90
10692;DHT22;5396;50.950;6.988;2022-08-04T13:31:20;34.40;99.90
10692;DHT22;5396;50.950;6.988;2022-08-04T13:33:49;34.40;99.90
10692;DHT22;5396;50.950;6.988;2022-08-04T13:36:16;34.00;99.90
10692;DHT22;5396;50.950;6.988;2022-08-04T13:39:05;33.80;99.90
10692;DHT22;5396;50.950;6.988;2022-08-04T13:41:38;33.60;99.90
10692;DHT22;5396;50.950;6.988;2022-08-04T13:44:06;33.50;99.90
10692;DHT22;5396;50.950;6.988;2022-08-04T13:46:45;33.40;99.90
10692;DHT22;5396;50.950;6.988;2022-08-04T13:49:16;33.20;99.90
10692;DHT22;5396;50.950;6.988;2022-08-04T13:52:04;33.20;99.90
10692;DHT22;5396;50.950;6.988;2022-08-04T13:54:43;33.60;99.90
10692;DHT22;5396;50.950;6.988;2022-08-04T13:57:30;34.10;99.90
10692;DHT22;5396;50.950;6.988;2022-08-04T14:00:14;34.40;99.90
10692;DHT22;5396;50.950;6.988;2022-08-04T14:05:20;35.50;99.90
10692;DHT22;5396;50.950;6.988;2022-08-04T14:07:54;35.70;99.90
10692;DHT22;5396;50.950;6.988;2022-08-04T14:10:22;35.70;99.90
10692;DHT22;5396;50.950;6.988;2022-08-04T14:12:50;35.20;99.90
10692;DHT22;5396;50.950;6.988;2022-08-04T14:15:48;34.80;99.90
10692;DHT22;5396;50.950;6.988;2022-08-04T14:18:26;34.60;99.90
10692;DHT22;5396;50.950;6.988;2022-08-04T14:26:27;33.60;99.90
10692;DHT22;5396;50.950;6.988;2022-08-04T14:28:56;33.40;99.90
10692;DHT22;5396;50.950;6.988;2022-08-04T14:31:30;33.30;99.90
10692;DHT22;5396;50.950;6.988;2022-08-04T14:33:56;33.70;99.90
10692;DHT22;5396;50.950;6.988;2022-08-04T14:36:22;33.50;99.90
10692;DHT22;5396;50.950;6.988;2022-08-04T14:41:19;33.10;99.90
10692;DHT22;5396;50.950;6.988;2022-08-04T14:43:51;33.90;99.90
10692;DHT22;5396;50.950;6.988;2022-08-04T14:46:18;34.70;99.90
10692;DHT22;5396;50.950;6.988;2022-08-04T14:49:11;34.80;99.90
10692;DHT22;5396;50.950;6.988;2022-08-04T14:51:40;34.20;99.90
10692;DHT22;5396;50.950;6.988;2022-08-04T14:54:11;33.80;99.90
10692;DHT22;5396;50.950;6.988;2022-08-04T14:56:41;33.80;99.90
10692;DHT22;5396;50.950;6.988;2022-08-04T14:59:15;33.80;99.90
10692;DHT22;5396;50.950;6.988;2022-08-04T15:01:41;33.70;99.90
10692;DHT22;5396;50.950;6.988;2022-08-04T15:04:07;33.20;99.90
10692;DHT22;5396;50.950;6.988;2022-08-04T15:06:34;33.00;99.90
10692;DHT22;5396;50.950;6.988;2022-08-04T15:09:04;33.00;99.90
10692;DHT22;5396;50.950;6.988;2022-08-04T15:11:31;33.20;99.90
10692;DHT22;5396;50.950;6.988;2022-08-04T15:13:57;32.90;99.90
10692;DHT22;5396;50.950;6.988;2022-08-04T15:16:26;32.90;99.90
10692;DHT22;5396;50.950;6.988;2022-08-04T15:18:53;32.70;99.90
10692;DHT22;5396;50.950;6.988;2022-08-04T15:21:19;32.50;99.90
10692;DHT22;5396;50.950;6.988;2022-08-04T15:23:47;32.10;99.90
10692;DHT22;5396;50.950;6.988;2022-08-04T15:26:16;31.80;99.90
10692;DHT22;5396;50.950;6.988;2022-08-04T15:28:50;31.70;99.90
10692;DHT22;5396;50.950;6.988;2022-08-04T15:31:18;31.60;99.90
10692;DHT22;5396;50.950;6.988;2022-08-04T15:33:46;31.30;99.90
10692;DHT22;5396;50.950;6.988;2022-08-04T15:36:20;31.10;99.90
10692;DHT22;5396;50.950;6.988;2022-08-04T15:49:22;30.40;99.90
10692;DHT22;5396;50.950;6.988;2022-08-04T15:52:05;30.20;99.90
10692;DHT22;5396;50.950;6.988;2022-08-04T15:54:32;30.10;99.90
10692;DHT22;5396;50.950;6.988;2022-08-04T15:57:01;30.10;99.90
10692;DHT22;5396;50.950;6.988;2022-08-04T16:02:36;30.00;99.90
10692;DHT22;5396;50.950;6.988;2022-08-04T16:12:57;29.90;99.90
10692;DHT22;5396;50.950;6.988;2022-08-04T16:15:44;29.70;99.90
10692;DHT22;5396;50.950;6.988;2022-08-04T16:18:17;29.40;99.90
10692;DHT22;5396;50.950;6.988;2022-08-04T16:20:45;29.30;99.90
10692;DHT22;5396;50.950;6.988;2022-08-04T16:25:46;29.10;99.90
10692;DHT22;5396;50.950;6.988;2022-08-04T16:31:03;29.00;99.90
10692;DHT22;5396;50.950;6.988;2022-08-04T16:33:31;28.90;99.90
10692;DHT22;5396;50.950;6.988;2022-08-04T16:35:58;28.80;99.90
10692;DHT22;5396;50.950;6.988;2022-08-04T16:38:24;28.70;99.90
10692;DHT22;5396;50.950;6.988;2022-08-04T16:41:00;28.60;99.90
10692;DHT22;5396;50.950;6.988;2022-08-04T16:43:31;28.50;99.90
10692;DHT22;5396;50.950;6.988;2022-08-04T16:46:01;28.60;99.90
10692;DHT22;5396;50.950;6.988;2022-08-04T16:48:29;28.50;99.90
10692;DHT22;5396;50.950;6.988;2022-08-04T16:51:05;28.50;99.90
10692;DHT22;5396;50.950;6.988;2022-08-04T16:53:43;28.50;99.90
10692;DHT22;5396;50.950;6.988;2022-08-04T16:56:10;28.50;99.90
10692;DHT22;5396;50.950;6.988;2022-08-04T16:58:36;28.50;99.90
10692;DHT22;5396;50.950;6.988;2022-08-04T17:01:09;28.40;99.90
10692;DHT22;5396;50.950;6.988;2022-08-04T17:03:39;28.40;99.90
10692;DHT22;5396;50.950;6.988;2022-08-04T17:08:32;28.30;99.90
10692;DHT22;5396;50.950;6.988;2022-08-04T17:10:59;28.40;99.90
10692;DHT22;5396;50.950;6.988;2022-08-04T17:13:27;28.40;99.90
10692;DHT22;5396;50.950;6.988;2022-08-04T17:16:05;28.40;99.90
10692;DHT22;5396;50.950;6.988;2022-08-04T17:18:33;28.40;99.90
10692;DHT22;5396;50.950;6.988;2022-08-04T17:21:20;28.40;99.90
10692;DHT22;5396;50.950;6.988;2022-08-04T17:23:51;28.30;99.90
10692;DHT22;5396;50.950;6.988;2022-08-04T17:26:22;28.40;99.90
10692;DHT22;5396;50.950;6.988;2022-08-04T17:28:50;28.90;99.90
10692;DHT22;5396;50.950;6.988;2022-08-04T17:31:16;29.70;99.90
10692;DHT22;5396;50.950;6.988;2022-08-04T17:33:45;30.50;99.90
10692;DHT22;5396;50.950;6.988;2022-08-04T17:36:12;31.10;99.90
10692;DHT22;5396;50.950;6.988;2022-08-04T17:38:44;31.60;99.90
10692;DHT22;5396;50.950;6.988;2022-08-04T17:41:11;31.90;99.90
10692;DHT22;5396;50.950;6.988;2022-08-04T17:43:43;31.90;99.90
10692;DHT22;5396;50.950;6.988;2022-08-04T17:51:34;31.10;99.90
10692;DHT22;5396;50.950;6.988;2022-08-04T17:54:01;31.30;99.90
10692;DHT22;5396;50.950;6.988;2022-08-04T17:56:30;31.50;99.90
10692;DHT22;5396;50.950;6.988;2022-08-04T17:59:25;31.50;99.90
10692;DHT22;5396;50.950;6.988;2022-08-04T18:01:54;31.30;99.90
10692;DHT22;5396;50.950;6.988;2022-08-04T18:07:00;30.70;99.90
10692;DHT22;5396;50.950;6.988;2022-08-04T18:09:31;30.40;99.90
10692;DHT22;5396;50.950;6.988;2022-08-04T18:12:05;30.10;99.90
10692;DHT22;5396;50.950;6.988;2022-08-04T18:17:04;29.50;99.90
10692;DHT22;5396;50.950;6.988;2022-08-04T18:19:30;29.30;99.90
10692;DHT22;5396;50.950;6.988;2022-08-04T18:21:55;29.10;99.90
10692;DHT22;5396;50.950;6.988;2022-08-04T18:24:21;28.90;99.90
10692;DHT22;5396;50.950;6.988;2022-08-04T18:26:47;28.80;99.90
10692;DHT22;5396;50.950;6.988;2022-08-04T18:29:12;28.60;99.90
10692;DHT22;5396;50.950;6.988;2022-08-04T18:31:38;28.60;99.90
10692;DHT22;5396;50.950;6.988;2022-08-04T18:34:05;28.50;99.90
10692;DHT22;5396;50.950;6.988;2022-08-04T18:36:31;28.50;99.90
10692;DHT22;5396;50.950;6.988;2022-08-04T18:38:59;28.40;99.90
10692;DHT22;5396;50.950;6.988;2022-08-04T18:41:28;28.30;99.90
10692;DHT22;5396;50.950;6.988;2022-08-04T18:43:56;28.20;99.90
10692;DHT22;5396;50.950;6.988;2022-08-04T18:46:25;28.10;99.90
10692;DHT22;5396;50.950;6.988;2022-08-04T18:48:50;28.00;99.90
10692;DHT22;5396;50.950;6.988;2022-08-04T18:51:16;27.90;99.90
10692;DHT22;5396;50.950;6.988;2022-08-04T18:53:45;27.70;99.90
10692;DHT22;5396;50.950;6.988;2022-08-04T18:56:13;27.60;99.90
10692;DHT22;5396;50.950;6.988;2022-08-04T18:58:41;27.50;99.90
10692;DHT22;5396;50.950;6.988;2022-08-04T19:01:07;27.40;99.90
10692;DHT22;5396;50.950;6.988;2022-08-04T19:03:34;27.30;99.90
10692;DHT22;5396;50.950;6.988;2022-08-04T19:06:01;27.20;99.90
10692;DHT22;5396;50.950;6.988;2022-08-04T19:08:28;27.10;99.90
10692;DHT22;5396;50.950;6.988;2022-08-04T19:10:54;27.00;99.90
10692;DHT22;5396;50.950;6.988;2022-08-04T19:13:20;26.90;99.90
10692;DHT22;5396;50.950;6.988;2022-08-04T19:15:46;26.80;99.90
10692;DHT22;5396;50.950;6.988;2022-08-04T19:18:14;26.70;99.90
10692;DHT22;5396;50.950;6.988;2022-08-04T19:20:40;26.60;99.90
10692;DHT22;5396;50.950;6.988;2022-08-04T19:23:05;26.50;99.90
10692;DHT22;5396;50.950;6.988;2022-08-04T19:25:31;26.40;99.90
10692;DHT22;5396;50.950;6.988;2022-08-04T19:27:57;26.30;99.90
10692;DHT22;5396;50.950;6.988;2022-08-04T19:30:22;26.30;99.90
10692;DHT22;5396;50.950;6.988;2022-08-04T19:32:48;26.20;99.90
10692;DHT22;5396;50.950;6.988;2022-08-04T19:35:14;26.20;99.90
10692;DHT22;5396;50.950;6.988;2022-08-04T19:37:39;26.10;99.90
10692;DHT22;5396;50.950;6.988;2022-08-04T19:40:07;26.10;99.90
10692;DHT22;5396;50.950;6.988;2022-08-04T19:42:34;26.00;99.90
10692;DHT22;5396;50.950;6.988;2022-08-04T19:45:03;25.90;99.90
10692;DHT22;5396;50.950;6.988;2022-08-04T19:47:29;25.90;99.90
10692;DHT22;5396;50.950;6.988;2022-08-04T19:49:57;25.80;99.90
10692;DHT22;5396;50.950;6.988;2022-08-04T19:52:23;25.80;99.90
10692;DHT22;5396;50.950;6.988;2022-08-04T19:54:48;25.80;99.90
10692;DHT22;5396;50.950;6.988;2022-08-04T19:57:14;25.80;99.90
10692;DHT22;5396;50.950;6.988;2022-08-04T19:59:40;25.80;99.90
10692;DHT22;5396;50.950;6.988;2022-08-04T20:02:05;25.70;99.90
10692;DHT22;5396;50.950;6.988;2022-08-04T20:04:33;25.70;99.90
10692;DHT22;5396;50.950;6.988;2022-08-04T20:07:11;25.70;99.90
10692;DHT22;5396;50.950;6.988;2022-08-04T20:09:36;25.60;99.90
10692;DHT22;5396;50.950;6.988;2022-08-04T20:12:02;25.60;99.90
10692;DHT22;5396;50.950;6.988;2022-08-04T20:14:28;25.60;99.90
10692;DHT22;5396;50.950;6.988;2022-08-04T20:16:53;25.60;99.90
10692;DHT22;5396;50.950;6.988;2022-08-04T20:19:19;25.50;99.90
10692;DHT22;5396;50.950;6.988;2022-08-04T20:21:45;25.50;99.90
10692;DHT22;5396;50.950;6.988;2022-08-04T20:24:10;25.50;99.90
10692;DHT22;5396;50.950;6.988;2022-08-04T20:26:36;25.50;99.90
10692;DHT22;5396;50.950;6.988;2022-08-04T20:29:02;25.50;99.90
10692;DHT22;5396;50.950;6.988;2022-08-04T20:31:27;25.40;99.90
10692;DHT22;5396;50.950;6.988;2022-08-04T20:33:53;25.40;99.90
10692;DHT22;5396;50.950;6.988;2022-08-04T20:36:19;25.40;99.90
10692;DHT22;5396;50.950;6.988;2022-08-04T20:38:44;25.40;99.90
10692;DHT22;5396;50.950;6.988;2022-08-04T20:41:10;25.30;99.90
10692;DHT22;5396;50.950;6.988;2022-08-04T20:43:36;25.30;99.90
10692;DHT22;5396;50.950;6.988;2022-08-04T20:46:01;25.30;99.90
10692;DHT22;5396;50.950;6.988;2022-08-04T20:48:28;25.20;99.90
10692;DHT22;5396;50.950;6.988;2022-08-04T20:50:55;25.20;99.90